createdAt,value
2023-04-01T00:01:05.361Z,16.55
2023-04-01T00:03:37.227Z,13.95
2023-04-01T00:06:09.183Z,15.02
2023-04-01T00:08:41.628Z,14.50
2023-04-01T00:11:14.834Z,17.33
2023-04-01T00:13:47.439Z,18.27
2023-04-01T00:16:21.760Z,17.52
2023-04-01T00:18:54.723Z,16.52
2023-04-01T00:21:25.748Z,16.52
2023-04-01T00:23:57.610Z,14.68
2023-04-01T00:26:29.509Z,18.08
2023-04-01T00:29:03.016Z,15.38
2023-04-01T00:31:34.689Z,17.17
2023-04-01T00:34:07.076Z,17.77
2023-04-01T00:36:38.759Z,18.17
2023-04-01T00:39:10.734Z,19.85
2023-04-01T00:41:43.642Z,16.50
2023-04-01T00:44:25.662Z,16.90
2023-04-01T00:46:56.803Z,18.17
2023-04-01T00:49:35.192Z,18.37
2023-04-01T00:52:10.220Z,21.60
2023-04-01T00:54:48.056Z,21.25
2023-04-01T00:57:40.717Z,18.58
2023-04-01T01:00:16.208Z,18.55
2023-04-01T01:02:49.933Z,16.40
2023-04-01T01:05:28.026Z,17.85
2023-04-01T01:08:13.057Z,15.98
2023-04-01T01:10:50.318Z,20.70
2023-04-01T01:13:48.443Z,20.23
2023-04-01T01:16:32.361Z,21.05
2023-04-01T01:19:13.210Z,19.75
2023-04-01T01:21:59.961Z,19.95
2023-04-01T01:24:38.884Z,16.20
2023-04-01T01:27:14.441Z,20.08
2023-04-01T01:30:17.558Z,18.80
2023-04-01T01:32:59.885Z,22.23
2023-04-01T01:35:40.920Z,19.70
2023-04-01T01:38:19.349Z,22.02
2023-04-01T01:40:55.770Z,18.52
2023-04-01T01:43:32.734Z,20.90
2023-04-01T01:46:10.699Z,22.13
2023-04-01T01:48:46.540Z,21.33
2023-04-01T01:51:18.299Z,22.33
2023-04-01T01:53:50.378Z,21.23
2023-04-01T01:56:29.676Z,20.80
2023-04-01T01:59:10.099Z,23.00
2023-04-01T02:01:46.556Z,22.17
2023-04-01T02:04:21.374Z,23.45
2023-04-01T02:07:02.148Z,20.65
2023-04-01T02:09:36.425Z,20.65
2023-04-01T02:12:12.140Z,21.85
2023-04-01T02:15:12.561Z,20.27
2023-04-01T02:17:54.859Z,20.17
2023-04-01T02:20:30.679Z,18.50
2023-04-01T02:23:02.801Z,20.85
2023-04-01T02:25:38.817Z,20.15
2023-04-01T02:28:11.149Z,18.95
2023-04-01T02:30:45.370Z,19.90
2023-04-01T02:33:16.262Z,22.13
2023-04-01T02:35:47.445Z,21.67
2023-04-01T02:38:18.839Z,21.70
2023-04-01T02:40:54.137Z,25.08
2023-04-01T02:43:26.274Z,19.50
2023-04-01T02:45:57.719Z,20.10
2023-04-01T02:48:28.996Z,22.10
2023-04-01T02:51:00.525Z,21.00
2023-04-01T02:53:33.102Z,21.30
2023-04-01T02:56:04.035Z,18.83
2023-04-01T02:58:37.634Z,20.30
2023-04-01T03:01:09.939Z,17.77
2023-04-01T03:06:14.319Z,18.17
2023-04-01T03:08:45.973Z,21.87
2023-04-01T03:11:17.149Z,19.90
2023-04-01T03:13:49.039Z,19.48
2023-04-01T03:16:20.237Z,17.17
2023-04-01T03:18:56.487Z,20.90
2023-04-01T03:21:27.267Z,21.12
2023-04-01T03:23:57.560Z,19.15
2023-04-01T03:26:29.982Z,22.23
2023-04-01T03:29:02.098Z,18.87
2023-04-01T03:31:33.704Z,19.77
2023-04-01T03:34:06.096Z,21.87
2023-04-01T03:36:36.545Z,19.08
2023-04-01T03:39:08.464Z,17.02
2023-04-01T03:41:41.692Z,19.60
2023-04-01T03:44:14.386Z,17.90
2023-04-01T03:46:47.098Z,19.80
2023-04-01T03:49:19.550Z,20.75
2023-04-01T03:51:51.556Z,19.15
2023-04-01T03:54:24.556Z,20.70
2023-04-01T03:56:57.200Z,20.35
2023-04-01T04:01:59.514Z,18.10
2023-04-01T04:04:32.577Z,17.37
2023-04-01T04:07:05.001Z,15.75
2023-04-01T04:09:38.796Z,19.73
2023-04-01T04:12:10.481Z,21.95
2023-04-01T04:14:42.624Z,14.68
2023-04-01T04:17:17.883Z,23.00
2023-04-01T04:19:50.265Z,17.87
2023-04-01T04:22:22.165Z,15.45
2023-04-01T04:24:54.781Z,18.10
2023-04-01T04:27:26.313Z,17.23
2023-04-01T04:29:59.729Z,21.43
2023-04-01T04:35:03.582Z,16.65
2023-04-01T04:37:35.196Z,16.45
2023-04-01T04:40:07.323Z,15.80
2023-04-01T04:45:11.445Z,17.60
2023-04-01T04:47:44.736Z,15.95
2023-04-01T04:50:19.292Z,19.58
2023-04-01T04:52:50.666Z,18.05
2023-04-01T04:55:23.024Z,18.87
2023-04-01T04:57:54.331Z,18.92
2023-04-01T05:00:27.081Z,16.92
2023-04-01T05:02:59.078Z,17.17
2023-04-01T05:05:31.492Z,20.73
2023-04-01T05:08:04.180Z,19.37
2023-04-01T05:10:36.361Z,17.55
2023-04-01T05:13:07.586Z,18.25
2023-04-01T05:15:40.236Z,13.90
2023-04-01T05:20:53.584Z,16.70
2023-04-01T05:23:26.363Z,15.18
2023-04-01T05:25:59.677Z,10.82
2023-04-01T05:28:31.385Z,14.07
2023-04-01T05:31:05.644Z,14.73
2023-04-01T05:33:38.911Z,13.48
2023-04-01T05:36:14.100Z,13.80
2023-04-01T05:38:48.192Z,14.85
2023-04-01T05:41:21.338Z,11.05
2023-04-01T05:43:53.650Z,15.35
2023-04-01T05:46:28.407Z,14.30
2023-04-01T05:49:01.339Z,13.85
2023-04-01T05:51:34.532Z,15.50
2023-04-01T05:54:08.696Z,15.35
2023-04-01T05:56:41.308Z,11.07
2023-04-01T05:59:14.154Z,10.23
2023-04-01T06:01:46.417Z,9.65
2023-04-01T06:04:20.779Z,11.57
2023-04-01T06:06:53.786Z,14.75
2023-04-01T06:09:32.495Z,9.85
2023-04-01T06:12:32.024Z,10.30
2023-04-01T06:15:14.572Z,14.13
2023-04-01T06:18:20.806Z,5.82
2023-04-01T06:21:25.104Z,10.63
2023-04-01T06:24:26.921Z,9.95
2023-04-01T06:27:15.537Z,9.77
2023-04-01T06:29:58.711Z,11.32
2023-04-01T06:35:34.056Z,9.23
2023-04-01T06:38:33.692Z,4.28
2023-04-01T06:41:12.472Z,6.22
2023-04-01T06:44:01.658Z,9.85
2023-04-01T06:47:05.596Z,6.68
2023-04-01T06:50:04.583Z,3.37
2023-04-01T06:53:18.626Z,4.00
2023-04-01T06:56:12.153Z,8.65
2023-04-01T06:58:51.926Z,9.20
2023-04-01T07:01:44.981Z,6.65
2023-04-01T07:04:23.036Z,7.37
2023-04-01T07:06:59.126Z,8.93
2023-04-01T07:09:43.181Z,6.93
2023-04-01T07:12:42.985Z,8.43
2023-04-01T07:15:23.607Z,3.78
2023-04-01T07:18:11.880Z,5.65
2023-04-01T07:20:43.164Z,6.25
2023-04-01T07:23:30.210Z,6.07
2023-04-01T07:26:22.724Z,2.37
2023-04-01T07:28:59.174Z,5.28
2023-04-01T07:31:53.212Z,4.03
2023-04-01T07:34:29.958Z,6.12
2023-04-01T07:37:16.202Z,5.07
2023-04-01T07:40:17.248Z,4.93
2023-04-01T07:43:04.461Z,6.47
2023-04-01T07:45:49.395Z,4.37
2023-04-01T07:48:39.404Z,5.93
2023-04-01T07:51:39.818Z,5.75
2023-04-01T07:54:19.392Z,4.35
2023-04-01T07:57:10.725Z,4.57
2023-04-01T07:59:59.482Z,4.43
2023-04-01T08:02:51.215Z,6.75
2023-04-01T08:05:31.747Z,4.70
2023-04-01T08:08:14.269Z,3.17
2023-04-01T08:10:59.535Z,5.20
2023-04-01T08:14:04.146Z,4.65
2023-04-01T08:17:00.173Z,4.18
2023-04-01T08:19:42.028Z,5.30
2023-04-01T08:22:22.547Z,2.30
2023-04-01T08:24:57.112Z,5.15
2023-04-01T08:27:37.880Z,4.18
2023-04-01T08:30:23.128Z,8.57
2023-04-01T08:33:01.568Z,3.87
2023-04-01T08:35:58.531Z,4.18
2023-04-01T08:38:39.446Z,6.80
2023-04-01T08:41:44.685Z,7.43
2023-04-01T08:45:01.970Z,4.45
2023-04-01T08:47:52.236Z,5.65
2023-04-01T08:50:58.836Z,7.10
2023-04-01T08:53:57.040Z,5.62
2023-04-01T08:56:37.635Z,3.67
2023-04-01T08:59:47.057Z,4.65
2023-04-01T09:02:43.038Z,9.40
2023-04-01T09:05:39.058Z,8.52
2023-04-01T09:08:43.052Z,4.47
2023-04-01T09:14:15.021Z,3.67
2023-04-01T09:17:25.308Z,6.12
2023-04-01T09:20:35.242Z,4.80
2023-04-01T09:23:18.811Z,5.32
2023-04-01T09:25:57.401Z,7.18
2023-04-01T09:28:57.351Z,7.47
2023-04-01T09:32:01.943Z,3.95
2023-04-01T09:34:54.541Z,7.60
2023-04-01T09:37:54.467Z,6.32
2023-04-01T09:40:54.456Z,8.45
2023-04-01T09:43:35.035Z,7.40
2023-04-01T09:46:22.416Z,6.47
2023-04-01T09:49:32.776Z,9.07
2023-04-01T09:52:22.685Z,9.73
2023-04-01T09:54:58.050Z,5.47
2023-04-01T09:58:07.616Z,8.52
2023-04-01T10:01:09.660Z,8.63
2023-04-01T10:03:41.182Z,5.10
2023-04-01T10:06:50.214Z,6.32
2023-04-01T10:09:44.818Z,7.25
2023-04-01T10:12:55.196Z,4.95
2023-04-01T10:16:05.009Z,4.55
2023-04-01T10:19:02.968Z,8.13
2023-04-01T10:22:14.420Z,8.45
2023-04-01T10:25:07.046Z,8.18
2023-04-01T10:28:06.059Z,9.13
2023-04-01T10:31:05.307Z,5.25
2023-04-01T10:34:15.644Z,7.65
2023-04-01T10:36:55.237Z,6.22
2023-04-01T10:40:05.618Z,7.50
2023-04-01T10:43:17.437Z,7.97
2023-04-01T10:46:27.089Z,7.00
2023-04-01T10:49:16.079Z,3.62
2023-04-01T10:52:21.598Z,6.10
2023-04-01T10:55:34.667Z,6.87
2023-04-01T10:58:09.010Z,6.15
2023-04-01T11:01:26.119Z,7.00
2023-04-01T11:07:43.224Z,5.97
2023-04-01T11:10:51.851Z,9.98
2023-04-01T11:13:50.619Z,6.87
2023-04-01T11:17:00.740Z,6.97
2023-04-01T11:20:10.368Z,6.05
2023-04-01T11:23:20.376Z,6.93
2023-04-01T11:26:11.240Z,10.30
2023-04-01T11:29:12.844Z,7.37
2023-04-01T11:32:06.426Z,6.35
2023-04-01T11:34:50.047Z,7.80
2023-04-01T11:37:27.792Z,6.82
2023-04-01T11:40:15.196Z,6.20
2023-04-01T11:43:19.883Z,10.55
2023-04-01T11:46:33.858Z,8.10
2023-04-01T11:49:37.663Z,7.65
2023-04-01T11:52:38.668Z,7.93
2023-04-01T11:55:26.626Z,7.90
2023-04-01T11:58:20.812Z,10.07
2023-04-01T12:01:21.784Z,8.48
2023-04-01T12:04:30.951Z,9.43
2023-04-01T12:07:36.180Z,6.68
2023-04-01T12:10:26.224Z,6.97
2023-04-01T12:13:35.545Z,5.40
2023-04-01T12:16:15.946Z,8.57
2023-04-01T12:19:02.604Z,8.13
2023-04-01T12:21:53.531Z,7.87
2023-04-01T12:24:49.975Z,3.40
2023-04-01T12:27:41.590Z,5.85
2023-04-01T12:30:38.714Z,7.87
2023-04-01T12:33:45.591Z,4.47
2023-04-01T12:36:52.775Z,4.82
2023-04-01T12:39:41.254Z,5.15
2023-04-01T12:42:26.492Z,5.22
2023-04-01T12:45:17.447Z,7.65
2023-04-01T12:48:08.308Z,4.12
2023-04-01T12:51:07.230Z,4.50
2023-04-01T12:53:51.496Z,7.20
2023-04-01T12:56:50.801Z,4.47
2023-04-01T12:59:25.409Z,5.32
2023-04-01T13:02:23.662Z,6.00
2023-04-01T13:05:02.731Z,4.93
2023-04-01T13:10:46.580Z,4.47
2023-04-01T13:13:19.733Z,6.62
2023-04-01T13:16:17.847Z,7.75
2023-04-01T13:19:10.750Z,5.47
2023-04-01T13:22:19.674Z,9.35
2023-04-01T13:24:59.800Z,6.53
2023-04-01T13:37:18.911Z,9.32
2023-04-01T13:40:26.574Z,6.00
2023-04-01T13:43:09.576Z,5.37
2023-04-01T13:46:09.064Z,6.00
2023-04-01T13:48:56.413Z,6.18
2023-04-01T13:51:46.725Z,6.75
2023-04-01T13:54:32.553Z,9.18
2023-04-01T13:57:35.292Z,8.60
2023-04-01T14:00:41.489Z,9.45
2023-04-01T14:03:48.310Z,10.63
2023-04-01T14:06:31.671Z,8.75
2023-04-01T14:09:18.333Z,7.85
2023-04-01T14:12:04.936Z,10.23
2023-04-01T14:14:57.262Z,6.12
2023-04-01T14:17:31.243Z,8.30
2023-04-01T14:20:23.434Z,10.48
2023-04-01T14:23:10.780Z,7.93
2023-04-01T14:25:47.189Z,9.57
2023-04-01T14:28:18.531Z,10.60
2023-04-01T14:31:15.726Z,11.27
2023-04-01T14:34:01.625Z,10.43
2023-04-01T14:36:48.233Z,9.40
2023-04-01T14:39:32.106Z,9.10
2023-04-01T14:44:55.894Z,11.43
2023-04-01T14:47:44.213Z,12.32
2023-04-01T14:50:18.159Z,12.98
2023-04-01T14:53:13.443Z,8.88
2023-04-01T14:55:51.993Z,10.40
2023-04-01T14:58:23.087Z,10.68
2023-04-01T15:01:29.449Z,10.38
2023-04-01T15:04:24.355Z,12.07
2023-04-01T15:07:30.798Z,11.93
2023-04-01T15:10:30.775Z,10.13
2023-04-01T15:13:36.880Z,10.07
2023-04-01T15:16:32.218Z,11.00
2023-04-01T15:19:30.163Z,10.10
2023-04-01T15:22:24.433Z,8.10
2023-04-01T15:25:24.189Z,7.60
2023-04-01T15:28:08.955Z,12.77
2023-04-01T15:31:06.900Z,9.05
2023-04-01T15:33:52.427Z,12.35
2023-04-01T15:36:43.559Z,10.93
2023-04-01T15:39:19.444Z,10.63
2023-04-01T15:42:26.033Z,8.52
2023-04-01T15:45:05.951Z,7.93
2023-04-01T15:47:59.331Z,8.45
2023-04-01T15:50:52.358Z,10.05
2023-04-01T15:53:37.834Z,8.75
2023-04-01T15:56:44.802Z,8.95
2023-04-01T15:59:33.365Z,8.10
2023-04-01T16:02:30.113Z,9.95
2023-04-01T16:05:31.933Z,10.57
2023-04-01T16:08:39.043Z,9.50
2023-04-01T16:11:22.774Z,7.85
2023-04-01T16:14:14.271Z,8.77
2023-04-01T16:17:20.909Z,7.65
2023-04-01T16:19:53.736Z,21.50
2023-04-01T16:22:33.010Z,11.35
2023-04-01T16:25:35.778Z,12.93
2023-04-01T16:28:24.906Z,12.45
2023-04-01T16:31:09.779Z,9.43
2023-04-01T16:33:52.625Z,9.30
2023-04-01T16:36:31.317Z,11.02
2023-04-01T16:39:41.340Z,14.60
2023-04-01T16:42:40.963Z,9.55
2023-04-01T16:45:38.193Z,11.75
2023-04-01T16:48:14.523Z,7.85
2023-04-01T16:51:05.249Z,9.02
2023-04-01T16:53:44.057Z,10.27
2023-04-01T16:56:37.405Z,12.82
2023-04-01T16:59:17.330Z,11.10
2023-04-01T17:01:51.893Z,8.57
2023-04-01T17:04:38.135Z,8.45
2023-04-01T17:07:36.631Z,6.55
2023-04-01T17:10:30.555Z,9.50
2023-04-01T17:13:30.728Z,10.23
2023-04-01T17:16:30.804Z,8.60
2023-04-01T17:19:25.588Z,10.63
2023-04-01T17:22:32.321Z,8.60
2023-04-01T17:25:39.628Z,9.65
2023-04-01T17:28:37.081Z,9.23
2023-04-01T17:31:23.037Z,9.93
2023-04-01T17:34:18.473Z,23.38
2023-04-01T17:37:01.819Z,18.87
2023-04-01T17:39:49.927Z,11.85
2023-04-01T17:42:40.558Z,9.57
2023-04-01T17:45:37.337Z,10.35
2023-04-01T17:48:44.641Z,12.35
2023-04-01T17:51:30.933Z,10.77
2023-04-01T17:54:38.329Z,12.73
2023-04-01T17:57:43.514Z,13.25
2023-04-01T18:00:30.090Z,11.18
2023-04-01T18:03:33.263Z,7.65
2023-04-01T18:06:39.989Z,14.48
2023-04-01T18:09:40.331Z,7.93
2023-04-01T18:12:47.469Z,11.12
2023-04-01T18:15:40.892Z,13.68
2023-04-01T18:18:37.334Z,4.50
2023-04-01T18:21:31.775Z,8.18
2023-04-01T18:24:15.560Z,9.68
2023-04-01T18:26:52.423Z,7.85
2023-04-01T18:29:37.512Z,8.43
2023-04-01T18:32:25.479Z,5.87
2023-04-01T18:35:04.270Z,15.35
2023-04-01T18:40:56.911Z,12.70
2023-04-01T18:43:39.254Z,12.68
2023-04-01T18:46:47.633Z,15.98
2023-04-01T18:49:46.020Z,14.90
2023-04-01T18:52:21.353Z,13.75
2023-04-01T18:55:24.016Z,11.63
2023-04-01T18:57:57.975Z,17.05
2023-04-01T19:00:44.577Z,16.27
2023-04-01T19:03:33.321Z,11.77
2023-04-01T19:06:13.987Z,16.00
2023-04-01T19:08:42.812Z,17.02
2023-04-01T19:11:43.339Z,16.65
2023-04-01T19:14:27.990Z,16.20
2023-04-01T19:17:26.076Z,14.40
2023-04-01T19:20:16.464Z,12.00
2023-04-01T19:23:17.650Z,16.58
2023-04-01T19:25:57.224Z,14.02
2023-04-01T19:28:28.651Z,14.52
2023-04-01T19:31:19.289Z,17.10
2023-04-01T19:33:50.372Z,14.27
2023-04-01T19:39:52.508Z,14.68
2023-04-01T19:42:38.894Z,16.37
2023-04-01T19:45:26.584Z,15.65
2023-04-01T19:48:24.699Z,15.32
2023-04-01T19:50:56.329Z,17.70
2023-04-01T19:53:53.830Z,16.87
2023-04-01T19:56:24.652Z,15.63
2023-04-01T19:58:58.451Z,13.98
2023-04-01T20:01:46.625Z,17.85
2023-04-01T20:04:22.518Z,14.07
2023-04-01T20:06:50.214Z,20.42
2023-04-01T20:09:36.710Z,16.12
2023-04-01T20:12:16.669Z,18.40
2023-04-01T20:14:54.522Z,18.48
2023-04-01T20:17:47.525Z,18.40
2023-04-01T20:20:26.201Z,19.87
2023-04-01T20:23:12.650Z,17.75
2023-04-01T20:26:02.658Z,17.27
2023-04-01T20:28:48.475Z,17.45
2023-04-01T20:31:26.299Z,19.50
2023-04-01T20:34:12.514Z,18.25
2023-04-01T20:37:03.124Z,19.50
2023-04-01T20:39:45.983Z,20.10
2023-04-01T20:44:53.338Z,17.55
2023-04-01T20:47:49.669Z,17.10
2023-04-01T20:50:36.618Z,16.50
2023-04-01T20:53:13.666Z,18.90
2023-04-01T20:56:11.973Z,21.20
2023-04-01T20:59:11.908Z,19.05
2023-04-01T21:01:52.467Z,20.37
2023-04-01T21:04:27.548Z,18.15
2023-04-01T21:07:08.432Z,20.35
2023-04-01T21:09:57.757Z,22.80
2023-04-01T21:12:25.944Z,20.62
2023-04-01T21:15:18.646Z,19.85
2023-04-01T21:18:10.881Z,17.80
2023-04-01T21:21:09.284Z,16.50
2023-04-01T21:23:59.503Z,15.40
2023-04-01T21:27:03.351Z,17.35
2023-04-01T21:29:55.042Z,22.45
2023-04-01T21:33:11.565Z,18.20
2023-04-01T21:35:58.170Z,16.48
2023-04-01T21:38:48.286Z,20.05
2023-04-01T21:41:45.228Z,15.43
2023-04-01T21:44:28.279Z,19.08
2023-04-01T21:47:25.247Z,16.60
2023-04-01T21:50:09.822Z,17.40
2023-04-01T21:53:05.278Z,16.42
2023-04-01T21:56:11.510Z,19.00
2023-04-01T21:59:18.934Z,20.77
2023-04-01T22:02:01.979Z,17.23
2023-04-01T22:04:36.253Z,16.48
2023-04-01T22:07:32.465Z,14.82
2023-04-01T22:10:00.593Z,13.02
2023-04-01T22:12:46.859Z,13.85
2023-04-01T22:15:30.789Z,18.60
2023-04-01T22:18:24.006Z,14.27
2023-04-01T22:21:06.426Z,18.00
2023-04-01T22:23:55.859Z,18.15
2023-04-01T22:26:34.426Z,15.93
2023-04-01T22:29:19.808Z,16.30
2023-04-01T22:32:01.311Z,17.35
2023-04-01T22:34:46.606Z,17.10
2023-04-01T22:37:42.104Z,17.00
2023-04-01T22:40:24.962Z,19.05
2023-04-01T22:45:45.403Z,17.62
2023-04-01T22:48:23.150Z,18.42
2023-04-01T22:51:14.187Z,18.77
2023-04-01T22:53:59.147Z,20.58
2023-04-01T22:56:36.108Z,21.12
2023-04-01T22:59:24.793Z,17.70
2023-04-01T23:02:39.294Z,20.27
2023-04-01T23:05:14.274Z,14.65
2023-04-01T23:07:57.677Z,18.48
2023-04-01T23:10:32.123Z,20.35
2023-04-01T23:13:03.641Z,27.15
2023-04-01T23:15:34.629Z,18.67
2023-04-01T23:18:35.287Z,18.05
2023-04-01T23:21:20.024Z,15.23
2023-04-01T23:24:17.981Z,19.95
2023-04-01T23:27:02.800Z,24.05
2023-04-01T23:29:31.430Z,22.62
2023-04-01T23:32:05.220Z,24.65
2023-04-01T23:34:36.153Z,21.12
2023-04-01T23:37:17.449Z,21.62
2023-04-01T23:39:51.757Z,21.80
2023-04-01T23:42:24.756Z,19.40
2023-04-01T23:44:58.336Z,15.60
2023-04-01T23:47:39.285Z,18.65
2023-04-01T23:50:19.330Z,19.45
2023-04-01T23:53:00.642Z,23.02
2023-04-01T23:55:43.210Z,20.75
2023-04-01T23:58:16.610Z,21.83
